Time;durP1;ratioP1;P1;durP2;ratioP2;P2;SDS_P1;SDS_P2;PMS_P1;PMS_P2;Temp;Humidity;BMP_temperature;BMP_pressure;BME280_temperature;BME280_humidity;BME280_pressure;Samples;Min_cycle;Max_cycle;Signal;HPM_P1;HPM_P2
2024/04/26 00:02:19;;;;;;;5.10;3.08;;;5.10;60.90;;;;;;5545562;25;20255;-76
2024/04/26 00:04:48;;;;;;;5.07;3.22;;;5.10;61.70;;;;;;5545851;25;20217;-75
2024/04/26 00:07:17;;;;;;;5.05;3.95;;;5.00;61.50;;;;;;5580471;25;20220;-75
2024/04/26 00:09:45;;;;;;;4.35;3.30;;;5.00;61.80;;;;;;5583302;25;20215;-77
2024/04/26 00:12:15;;;;;;;4.97;2.80;;;5.00;62.30;;;;;;5582979;25;20212;-75
2024/04/26 00:14:46;;;;;;;5.72;3.00;;;4.90;62.30;;;;;;5583312;25;20295;-75
2024/04/26 00:17:15;;;;;;;7.32;2.72;;;4.80;63.20;;;;;;5577917;25;20822;-75
2024/04/26 00:19:44;;;;;;;3.88;2.10;;;4.80;63.90;;;;;;5567049;25;20213;-75
2024/04/26 00:22:13;;;;;;;5.00;2.30;;;4.80;64.00;;;;;;5549947;25;20229;-74
2024/04/26 00:24:42;;;;;;;4.60;3.00;;;4.80;63.70;;;;;;5529297;26;20251;-75
2024/04/26 00:27:11;;;;;;;4.05;2.70;;;4.80;64.20;;;;;;5529384;26;20217;-75
2024/04/26 00:29:39;;;;;;;3.97;2.15;;;4.90;64.60;;;;;;5529208;26;20260;-76
2024/04/26 00:32:11;;;;;;;7.28;2.50;;;4.90;64.10;;;;;;5529222;26;20264;-75
2024/04/26 00:34:40;;;;;;;3.42;2.28;;;4.80;63.20;;;;;;5529225;26;20213;-75
2024/04/26 00:37:08;;;;;;;3.58;2.47;;;4.70;63.20;;;;;;5529059;26;20213;-75
2024/04/26 00:39:37;;;;;;;6.38;2.65;;;4.70;63.90;;;;;;5529344;26;20260;-76
2024/04/26 00:42:07;;;;;;;3.58;2.60;;;4.70;64.00;;;;;;5528994;26;20241;-75
2024/04/26 00:44:36;;;;;;;3.45;2.15;;;4.70;64.10;;;;;;5529083;26;20265;-75
2024/04/26 00:47:05;;;;;;;4.03;2.30;;;4.70;63.80;;;;;;5528765;26;20217;-76
2024/04/26 00:49:37;;;;;;;4.40;2.67;;;4.70;63.70;;;;;;5528760;26;20248;-75
2024/04/26 00:52:07;;;;;;;4.55;2.65;;;4.70;63.30;;;;;;5528944;26;20257;-75
2024/04/26 00:54:36;;;;;;;3.20;2.13;;;4.70;63.90;;;;;;5528793;26;20737;-78
2024/04/26 00:57:06;;;;;;;4.63;2.85;;;4.60;63.90;;;;;;5529110;26;20256;-75
2024/04/26 00:59:36;;;;;;;5.72;2.65;;;4.60;63.80;;;;;;5528842;26;20252;-75
2024/04/26 01:02:04;;;;;;;3.92;2.50;;;4.50;64.20;;;;;;5528663;26;20686;-75
2024/04/26 01:04:36;;;;;;;3.78;2.63;;;4.40;63.90;;;;;;5528753;26;20217;-75
2024/04/26 01:07:04;;;;;;;3.72;2.47;;;4.40;64.30;;;;;;5528843;26;20225;-76
2024/04/26 01:09:33;;;;;;;3.97;2.60;;;4.40;64.60;;;;;;5528948;26;20213;-75
2024/04/26 01:12:02;;;;;;;4.68;2.13;;;4.40;64.70;;;;;;5528628;26;20519;-76
2024/04/26 01:14:30;;;;;;;3.33;2.15;;;4.30;64.80;;;;;;5528504;26;20217;-75
2024/04/26 01:16:59;;;;;;;4.25;1.88;;;4.20;64.20;;;;;;5528384;26;20233;-76
2024/04/26 01:19:28;;;;;;;4.68;2.65;;;4.20;64.00;;;;;;5528383;26;20209;-76
2024/04/26 01:22:06;;;;;;;3.38;1.95;;;4.20;64.40;;;;;;5528340;26;20253;-75
2024/04/26 01:24:38;;;;;;;4.65;2.55;;;4.20;65.00;;;;;;5528407;26;20395;-75
2024/04/26 01:27:06;;;;;;;4.18;2.10;;;4.20;64.90;;;;;;5528271;26;20222;-75
2024/04/26 01:29:35;;;;;;;6.43;2.30;;;4.10;65.00;;;;;;5526951;26;20248;-75
2024/04/26 01:32:03;;;;;;;4.50;2.67;;;4.20;65.30;;;;;;5528472;26;20213;-75
2024/04/26 01:34:32;;;;;;;4.03;1.80;;;4.10;65.20;;;;;;5528489;26;20209;-75
2024/04/26 01:37:01;;;;;;;3.50;2.08;;;4.10;65.50;;;;;;5528246;26;20271;-75
2024/04/26 01:39:29;;;;;;;4.03;2.35;;;4.20;65.40;;;;;;5528150;26;20561;-75
2024/04/26 01:42:00;;;;;;;3.28;1.85;;;4.20;65.30;;;;;;5528385;26;20252;-76
2024/04/26 01:44:30;;;;;;;2.75;1.58;;;4.20;65.40;;;;;;5528108;26;20217;-75
2024/04/26 01:46:59;;;;;;;7.88;2.15;;;4.10;65.50;;;;;;5528213;26;20675;-75
2024/04/26 01:49:27;;;;;;;5.95;1.77;;;4.20;65.40;;;;;;5528939;26;20217;-75
2024/04/26 01:51:53;;;;;;;3.85;2.38;;;4.10;65.00;;;;;;5528077;26;20213;-76
2024/04/26 01:54:22;;;;;;;3.72;2.17;;;4.10;64.80;;;;;;5527948;26;20225;-76
2024/04/26 01:56:48;;;;;;;2.65;1.50;;;4.10;64.70;;;;;;5528011;26;20264;-76
2024/04/26 01:59:19;;;;;;;4.50;2.60;;;4.10;64.20;;;;;;5553791;25;20228;-75
2024/04/26 02:01:45;;;;;;;3.03;2.15;;;4.00;64.20;;;;;;5565261;25;20825;-75
2024/04/26 02:04:14;;;;;;;4.95;2.42;;;4.00;63.90;;;;;;5565508;25;20260;-74
2024/04/26 02:06:40;;;;;;;3.75;2.25;;;4.00;63.40;;;;;;5564241;25;20556;-75
2024/04/26 02:09:09;;;;;;;2.73;1.40;;;4.00;63.10;;;;;;5565196;25;20212;-74
2024/04/26 02:11:35;;;;;;;3.47;2.08;;;3.90;63.20;;;;;;5565114;25;20436;-75
2024/04/26 02:14:04;;;;;;;5.28;2.00;;;3.90;63.20;;;;;;5565034;25;20212;-75
2024/04/26 02:16:32;;;;;;;3.15;2.00;;;3.80;63.80;;;;;;5562182;25;20228;-75
2024/04/26 02:19:01;;;;;;;3.25;2.30;;;3.80;64.70;;;;;;5564886;25;20330;-76
2024/04/26 02:21:29;;;;;;;4.13;2.10;;;3.80;65.50;;;;;;5565058;25;20212;-75
2024/04/26 02:23:58;;;;;;;4.03;2.60;;;3.70;65.60;;;;;;5564962;25;20216;-75
2024/04/26 02:26:26;;;;;;;3.33;2.35;;;3.80;66.00;;;;;;5565074;25;20215;-75
2024/04/26 02:28:55;;;;;;;5.47;2.40;;;3.80;66.20;;;;;;5564812;25;20212;-75
2024/04/26 02:31:24;;;;;;;3.72;1.90;;;3.70;66.20;;;;;;5536595;25;20544;-75
2024/04/26 02:33:56;;;;;;;3.40;1.90;;;3.70;65.80;;;;;;5528490;25;20290;-75
2024/04/26 02:36:24;;;;;;;3.95;2.30;;;3.70;65.40;;;;;;5553870;25;20228;-76
2024/04/26 02:38:53;;;;;;;3.13;1.88;;;3.70;64.60;;;;;;5564697;25;20212;-75
2024/04/26 02:41:21;;;;;;;2.75;1.70;;;3.60;64.50;;;;;;5563649;25;20228;-75
2024/04/26 02:43:50;;;;;;;3.58;1.90;;;3.60;64.90;;;;;;5564125;25;20267;-75
2024/04/26 02:46:19;;;;;;;3.78;1.85;;;3.60;65.50;;;;;;5564436;25;20255;-75
2024/04/26 02:48:47;;;;;;;3.92;2.00;;;3.60;65.00;;;;;;5564614;25;20212;-76
2024/04/26 02:51:19;;;;;;;3.55;2.20;;;3.60;64.60;;;;;;5564469;25;20208;-75
2024/04/26 02:53:47;;;;;;;2.50;1.75;;;3.50;65.00;;;;;;5563957;25;20563;-76
2024/04/26 02:56:16;;;;;;;2.60;1.80;;;3.50;65.20;;;;;;5564321;25;20216;-75
2024/04/26 02:58:44;;;;;;;5.80;2.00;;;3.60;65.20;;;;;;5560354;25;20714;-75
2024/04/26 03:01:13;;;;;;;4.30;2.35;;;3.50;65.40;;;;;;5526708;25;20267;-75
2024/04/26 03:03:42;;;;;;;3.85;2.47;;;3.50;65.80;;;;;;5526716;26;20213;-74
2024/04/26 03:06:12;;;;;;;4.75;2.00;;;3.60;66.40;;;;;;5526559;26;20259;-74
2024/04/26 03:08:45;;;;;;;3.30;1.77;;;3.60;66.20;;;;;;5526986;25;20556;-75
2024/04/26 03:11:20;;;;;;;7.50;2.55;;;3.50;65.40;;;;;;5564115;25;20243;-75
2024/04/26 03:13:49;;;;;;;3.20;1.73;;;3.50;65.00;;;;;;5564120;25;20207;-75
2024/04/26 03:16:17;;;;;;;3.17;2.15;;;3.60;65.80;;;;;;5563850;25;20247;-75
2024/04/26 03:18:49;;;;;;;3.63;2.10;;;3.60;66.90;;;;;;5562015;25;20216;-75
2024/04/26 03:21:18;;;;;;;4.10;2.10;;;3.50;66.70;;;;;;5526944;26;20218;-75
2024/04/26 03:23:49;;;;;;;3.17;1.75;;;3.40;66.90;;;;;;5526730;26;20252;-75
2024/04/26 03:26:19;;;;;;;3.90;2.30;;;3.50;67.00;;;;;;5526483;26;20251;-74
2024/04/26 03:28:49;;;;;;;2.97;1.75;;;3.50;67.10;;;;;;5527294;25;20224;-77
2024/04/26 03:31:21;;;;;;;2.80;1.58;;;3.50;67.30;;;;;;5564276;25;20258;-75
2024/04/26 03:33:50;;;;;;;6.07;2.25;;;3.60;67.70;;;;;;5564048;25;20217;-75
2024/04/26 03:36:19;;;;;;;3.08;2.00;;;3.60;67.70;;;;;;5563607;25;20526;-75
2024/04/26 03:38:52;;;;;;;3.72;2.08;;;3.60;68.00;;;;;;5562312;25;20263;-76
2024/04/26 03:41:21;;;;;;;4.25;2.80;;;3.70;68.10;;;;;;5526258;26;20209;-75
2024/04/26 03:43:49;;;;;;;4.32;1.70;;;3.70;67.50;;;;;;5526696;26;20263;-75
2024/04/26 03:46:18;;;;;;;3.00;1.55;;;3.80;67.20;;;;;;5525930;26;20252;-75
2024/04/26 03:48:48;;;;;;;4.00;2.00;;;3.80;66.80;;;;;;5526195;25;20703;-75
2024/04/26 03:51:17;;;;;;;3.55;2.45;;;3.70;66.60;;;;;;5526147;26;20313;-75
2024/04/26 03:53:46;;;;;;;3.35;1.95;;;3.70;66.40;;;;;;5528615;25;20272;-75
2024/04/26 03:56:19;;;;;;;4.65;2.72;;;3.70;67.10;;;;;;5529648;26;20317;-76
2024/04/26 03:58:47;;;;;;;3.83;1.95;;;3.70;67.60;;;;;;5529931;25;20217;-77
2024/04/26 04:01:16;;;;;;;3.08;2.10;;;3.70;67.90;;;;;;5529840;26;20214;-74
2024/04/26 04:03:44;;;;;;;3.17;2.10;;;3.70;68.00;;;;;;5529554;26;20244;-75
2024/04/26 04:06:13;;;;;;;2.40;1.52;;;3.70;68.30;;;;;;5541986;25;20232;-75
2024/04/26 04:08:42;;;;;;;3.33;1.85;;;3.70;68.30;;;;;;5567115;25;20216;-75
2024/04/26 04:11:11;;;;;;;3.85;2.08;;;3.80;68.40;;;;;;5530306;25;20229;-74
2024/04/26 04:13:42;;;;;;;3.63;2.42;;;3.80;68.30;;;;;;5529075;26;20334;-75
2024/04/26 04:16:11;;;;;;;6.20;2.58;;;3.90;68.30;;;;;;5529055;26;20695;-74
2024/04/26 04:18:40;;;;;;;3.47;2.03;;;3.90;67.30;;;;;;5529237;26;20256;-75
2024/04/26 04:21:09;;;;;;;3.92;2.58;;;3.90;66.80;;;;;;5562881;25;20228;-75
2024/04/26 04:23:37;;;;;;;3.85;2.25;;;3.90;66.50;;;;;;5566686;25;20227;-75
2024/04/26 04:26:06;;;;;;;3.88;2.15;;;3.90;66.50;;;;;;5566315;25;20212;-75
2024/04/26 04:28:38;;;;;;;3.22;2.05;;;3.90;66.50;;;;;;5566212;25;20259;-75
2024/04/26 04:31:10;;;;;;;3.10;1.85;;;3.90;66.70;;;;;;5531792;25;20718;-75
2024/04/26 04:33:38;;;;;;;4.43;2.10;;;3.80;66.80;;;;;;5525972;25;20229;-75
2024/04/26 04:36:07;;;;;;;4.78;2.40;;;3.80;66.90;;;;;;5526450;25;20225;-75
2024/04/26 04:38:36;;;;;;;5.00;2.30;;;3.80;66.10;;;;;;5527741;26;20210;-77
2024/04/26 04:41:05;;;;;;;4.10;2.20;;;3.80;66.00;;;;;;5529700;25;20224;-74
2024/04/26 04:43:33;;;;;;;3.05;2.05;;;3.70;65.80;;;;;;5528617;26;20210;-74
2024/04/26 04:46:02;;;;;;;3.25;2.20;;;3.70;65.60;;;;;;5527520;26;20762;-75
2024/04/26 04:48:33;;;;;;;4.60;2.90;;;3.70;65.50;;;;;;5528249;25;20563;-75
2024/04/26 04:51:02;;;;;;;3.70;2.05;;;3.70;65.80;;;;;;5559772;25;20224;-75
2024/04/26 04:53:30;;;;;;;3.72;2.35;;;3.60;65.90;;;;;;5563345;25;20271;-75
2024/04/26 04:55:59;;;;;;;3.10;1.70;;;3.60;65.90;;;;;;5528150;25;20221;-75
2024/04/26 04:58:28;;;;;;;3.25;1.75;;;3.60;66.80;;;;;;5528423;26;20213;-75
2024/04/26 05:00:56;;;;;;;3.05;1.70;;;3.60;67.80;;;;;;5528283;26;20247;-75
2024/04/26 05:03:25;;;;;;;4.45;1.92;;;3.70;68.70;;;;;;5530108;25;20256;-77
2024/04/26 05:05:56;;;;;;;2.83;1.70;;;3.70;69.30;;;;;;5528175;26;20229;-75
2024/04/26 05:08:25;;;;;;;3.45;2.25;;;3.80;70.10;;;;;;5528229;26;20687;-75
2024/04/26 05:10:54;;;;;;;3.95;2.30;;;3.90;70.10;;;;;;5528072;26;20707;-76
2024/04/26 05:13:23;;;;;;;9.45;3.25;;;4.00;70.30;;;;;;5528122;25;20573;-75
2024/04/26 05:15:52;;;;;;;5.22;2.90;;;4.00;70.40;;;;;;5528735;25;20225;-76
2024/04/26 05:18:20;;;;;;;6.93;3.22;;;4.10;70.80;;;;;;5550495;25;20287;-75
2024/04/26 05:20:50;;;;;;;4.45;2.67;;;4.10;70.90;;;;;;5539119;25;20264;-78
2024/04/26 05:23:22;;;;;;;3.33;2.20;;;4.20;70.70;;;;;;5528319;25;20213;-75
2024/04/26 05:25:51;;;;;;;3.75;2.15;;;4.30;70.30;;;;;;5564727;25;20336;-76
2024/04/26 05:28:20;;;;;;;5.13;2.88;;;4.30;70.30;;;;;;5562080;25;20807;-77
2024/04/26 05:30:48;;;;;;;4.40;2.40;;;4.40;70.90;;;;;;5548178;25;20228;-75
2024/04/26 05:33:17;;;;;;;5.20;3.38;;;4.50;71.00;;;;;;5539250;25;20271;-76
2024/04/26 05:35:46;;;;;;;6.85;4.47;;;4.60;71.20;;;;;;5543449;25;20230;-75
2024/04/26 05:38:14;;;;;;;7.30;3.95;;;4.60;71.30;;;;;;5556040;25;20232;-75
2024/04/26 05:40:46;;;;;;;5.82;4.05;;;4.70;71.60;;;;;;5543106;25;20220;-78
2024/04/26 05:43:18;;;;;;;5.90;4.55;;;4.80;71.60;;;;;;5539525;25;20682;-76
2024/04/26 05:45:47;;;;;;;4.65;3.65;;;4.90;71.70;;;;;;5559885;25;20228;-77
2024/04/26 05:48:15;;;;;;;8.25;5.25;;;5.00;71.10;;;;;;5544224;25;20224;-76
2024/04/26 05:50:44;;;;;;;8.48;5.90;;;5.20;71.10;;;;;;5564130;25;20212;-75
2024/04/26 05:53:13;;;;;;;8.90;5.82;;;5.30;71.30;;;;;;5532978;25;20229;-76
2024/04/26 05:55:44;;;;;;;6.90;4.00;;;5.40;70.80;;;;;;5526943;26;20726;-75
2024/04/26 05:58:13;;;;;;;11.10;5.38;;;5.50;70.60;;;;;;5526916;26;20217;-75
2024/04/26 06:00:43;;;;;;;6.53;4.30;;;5.60;70.90;;;;;;5526528;26;20271;-75
2024/04/26 06:03:13;;;;;;;6.43;4.22;;;5.70;71.20;;;;;;5528203;25;20225;-78
2024/04/26 06:05:42;;;;;;;6.40;3.85;;;5.80;71.10;;;;;;5525535;25;20411;-75
2024/04/26 06:08:10;;;;;;;4.85;2.97;;;5.90;71.00;;;;;;5537584;25;20827;-79
2024/04/26 06:10:39;;;;;;;5.05;2.35;;;6.10;70.10;;;;;;5542151;25;20702;-75
2024/04/26 06:13:11;;;;;;;5.65;3.72;;;6.20;69.80;;;;;;5542759;25;20783;-75
2024/04/26 06:15:39;;;;;;;6.22;4.85;;;6.30;68.60;;;;;;5556859;25;20254;-75
2024/04/26 06:18:08;;;;;;;7.47;3.47;;;6.40;69.20;;;;;;5537741;25;20268;-75
2024/04/26 06:20:37;;;;;;;5.43;3.08;;;6.50;69.80;;;;;;5536209;25;20280;-75
2024/04/26 06:23:06;;;;;;;6.43;3.70;;;6.60;69.60;;;;;;5525421;25;20715;-82
2024/04/26 06:25:35;;;;;;;11.60;4.00;;;6.80;69.80;;;;;;5527488;25;20555;-76
2024/04/26 06:28:04;;;;;;;4.45;2.95;;;7.00;67.70;;;;;;5530966;25;20273;-76
2024/04/26 06:30:37;;;;;;;4.80;3.35;;;7.10;66.00;;;;;;5540491;25;20275;-75
2024/04/26 06:33:06;;;;;;;5.97;3.45;;;7.20;63.50;;;;;;5540848;25;20228;-77
2024/04/26 06:35:34;;;;;;;4.13;2.90;;;7.40;63.50;;;;;;5525883;25;20272;-75
2024/04/26 06:38:03;;;;;;;3.50;2.72;;;7.50;64.30;;;;;;5553855;25;20267;-76
2024/04/26 06:40:32;;;;;;;4.78;2.97;;;7.70;63.30;;;;;;5543129;25;20228;-76
2024/04/26 06:43:00;;;;;;;4.93;3.50;;;7.80;62.60;;;;;;5525936;25;20548;-75
2024/04/26 06:45:29;;;;;;;7.45;4.00;;;7.90;61.40;;;;;;5524713;25;20291;-75
2024/04/26 06:48:00;;;;;;;6.50;4.00;;;8.00;59.50;;;;;;5538912;25;20226;-76
2024/04/26 06:50:29;;;;;;;5.43;3.45;;;8.10;58.50;;;;;;5546411;25;20553;-75
2024/04/26 06:52:57;;;;;;;3.25;2.00;;;8.20;58.50;;;;;;5562721;25;20701;-76
2024/04/26 06:55:26;;;;;;;4.20;2.80;;;8.30;56.30;;;;;;5542095;25;20717;-78
2024/04/26 06:57:54;;;;;;;4.60;2.35;;;8.40;57.00;;;;;;5558342;25;20274;-79
2024/04/26 07:00:23;;;;;;;3.90;2.10;;;8.50;57.30;;;;;;5559344;25;20220;-75
2024/04/26 07:02:52;;;;;;;5.03;2.05;;;8.60;57.70;;;;;;5532062;25;20225;-75
2024/04/26 07:05:23;;;;;;;6.10;2.30;;;8.80;57.70;;;;;;5526103;26;20260;-76
2024/04/26 07:07:51;;;;;;;3.58;2.38;;;9.00;57.60;;;;;;5526713;26;20236;-75
2024/04/26 07:10:20;;;;;;;3.78;2.30;;;9.10;58.50;;;;;;5526990;26;20217;-75
2024/04/26 07:12:49;;;;;;;4.47;1.95;;;9.30;58.10;;;;;;5526232;26;20210;-75
2024/04/26 07:15:17;;;;;;;2.95;1.75;;;9.50;54.70;;;;;;5526310;26;20213;-75
2024/04/26 07:17:48;;;;;;;4.13;2.10;;;9.60;54.70;;;;;;5526173;26;20260;-77
2024/04/26 07:20:17;;;;;;;4.32;2.25;;;9.80;54.30;;;;;;5526288;26;20776;-75
2024/04/26 07:22:49;;;;;;;3.97;1.83;;;9.90;55.10;;;;;;5526693;26;20217;-75
2024/04/26 07:25:17;;;;;;;5.28;2.28;;;10.10;54.80;;;;;;5526258;26;20240;-74
2024/04/26 07:27:46;;;;;;;3.40;1.80;;;10.20;54.10;;;;;;5527552;26;20270;-75
2024/04/26 07:30:15;;;;;;;4.65;2.08;;;10.40;54.20;;;;;;5529939;26;20252;-75
2024/04/26 07:32:43;;;;;;;4.68;2.03;;;10.60;53.70;;;;;;5529633;26;20305;-76
2024/04/26 07:35:12;;;;;;;3.20;1.70;;;10.90;52.80;;;;;;5529985;26;20213;-75
2024/04/26 07:37:41;;;;;;;3.30;1.85;;;11.10;52.00;;;;;;5529466;26;20263;-75
2024/04/26 07:40:13;;;;;;;3.23;2.27;;;11.20;50.40;;;;;;5529612;26;20209;-75
2024/04/26 07:42:41;;;;;;;3.07;1.53;;;11.40;51.40;;;;;;5529632;26;20506;-75
2024/04/26 07:45:11;;;;;;;4.07;2.20;;;11.60;51.20;;;;;;5529459;26;20494;-76
2024/04/26 07:47:39;;;;;;;3.60;1.83;;;11.80;50.80;;;;;;5529321;26;20553;-75
2024/04/26 07:50:09;;;;;;;3.77;1.87;;;12.10;51.50;;;;;;5529389;26;20490;-76
2024/04/26 07:52:37;;;;;;;3.07;2.00;;;12.40;51.40;;;;;;5529410;26;20445;-75
2024/04/26 07:55:07;;;;;;;3.70;2.13;;;12.60;51.10;;;;;;5529584;26;20448;-75
2024/04/26 07:57:38;;;;;;;3.63;1.90;;;12.90;49.60;;;;;;5529303;26;20450;-75
2024/04/26 08:00:07;;;;;;;3.97;2.00;;;13.10;50.30;;;;;;5529165;26;20453;-75
2024/04/26 08:02:36;;;;;;;2.70;1.93;;;13.40;51.00;;;;;;5529240;26;20817;-76
2024/04/26 08:05:05;;;;;;;2.83;1.90;;;13.70;50.00;;;;;;5528855;26;20446;-75
2024/04/26 08:07:33;;;;;;;2.97;1.50;;;13.90;47.20;;;;;;5529233;26;20951;-75
2024/04/26 08:10:02;;;;;;;3.27;1.50;;;14.20;45.40;;;;;;5529176;26;20446;-75
2024/04/26 08:12:31;;;;;;;2.93;1.60;;;14.30;43.40;;;;;;5529039;26;20446;-74
2024/04/26 08:15:02;;;;;;;3.20;1.70;;;14.50;43.00;;;;;;5529025;26;20442;-75
2024/04/26 08:17:31;;;;;;;4.33;2.13;;;14.60;43.10;;;;;;5529081;26;20457;-74
2024/04/26 08:19:59;;;;;;;5.50;1.60;;;14.80;45.10;;;;;;5528982;26;20442;-75
2024/04/26 08:22:28;;;;;;;4.63;1.90;;;15.00;43.00;;;;;;5528957;26;20450;-75
2024/04/26 08:24:58;;;;;;;4.00;1.30;;;15.30;42.00;;;;;;5528879;26;20451;-76
2024/04/26 08:27:26;;;;;;;3.40;1.50;;;15.60;42.50;;;;;;5528919;26;20499;-74
2024/04/26 08:29:55;;;;;;;3.90;1.40;;;15.80;42.10;;;;;;5528781;26;20781;-75
2024/04/26 08:32:27;;;;;;;4.37;1.77;;;16.10;41.00;;;;;;5528802;26;20447;-75
2024/04/26 08:34:56;;;;;;;3.87;2.07;;;16.40;42.10;;;;;;5529180;26;20499;-75
2024/04/26 08:37:24;;;;;;;3.10;1.77;;;16.60;43.00;;;;;;5528660;26;20576;-75
2024/04/26 08:39:53;;;;;;;4.50;1.60;;;16.90;40.50;;;;;;5528386;26;20449;-75
2024/04/26 08:42:24;;;;;;;2.80;1.60;;;17.10;40.50;;;;;;5528613;26;20496;-75
2024/04/26 08:44:53;;;;;;;4.47;1.33;;;17.40;40.60;;;;;;5529006;26;20453;-75
2024/04/26 08:47:23;;;;;;;2.97;1.30;;;17.60;40.10;;;;;;5528587;26;20498;-74
2024/04/26 08:49:59;;;;;;;4.43;1.43;;;17.80;36.80;;;;;;5528863;26;20514;-75
2024/04/26 08:52:31;;;;;;;4.27;1.40;;;17.90;36.50;;;;;;5528750;26;20449;-75
2024/04/26 08:55:00;;;;;;;2.60;1.20;;;18.00;36.60;;;;;;5529434;26;20453;-75
2024/04/26 08:57:30;;;;;;;3.17;1.40;;;18.20;37.10;;;;;;5528922;26;20807;-74
2024/04/26 09:00:03;;;;;;;4.00;1.53;;;18.30;36.60;;;;;;5528439;26;20502;-75
2024/04/26 09:02:32;;;;;;;2.20;1.00;;;18.50;33.30;;;;;;5528357;26;20783;-75
2024/04/26 09:05:04;;;;;;;2.50;1.40;;;18.50;31.30;;;;;;5528373;26;20486;-75
2024/04/26 09:07:33;;;;;;;2.70;1.00;;;18.50;31.60;;;;;;5528275;26;20453;-76
2024/04/26 09:10:01;;;;;;;3.67;1.23;;;18.60;31.40;;;;;;5528621;26;20450;-75
2024/04/26 09:12:30;;;;;;;6.00;1.20;;;18.80;31.90;;;;;;5528262;26;20454;-75
2024/04/26 09:14:59;;;;;;;2.13;0.93;;;19.00;32.80;;;;;;5528388;26;20442;-75
2024/04/26 09:17:29;;;;;;;2.23;0.83;;;19.30;33.40;;;;;;5528547;26;20450;-75
2024/04/26 09:19:58;;;;;;;2.93;1.17;;;19.50;29.40;;;;;;5528214;26;20446;-75
2024/04/26 09:22:31;;;;;;;2.63;1.20;;;19.70;30.10;;;;;;5528076;26;20813;-75
2024/04/26 09:25:01;;;;;;;2.40;1.00;;;19.90;29.70;;;;;;5528400;26;20450;-73
2024/04/26 09:27:29;;;;;;;2.87;1.00;;;20.10;31.40;;;;;;5527977;26;20494;-75
2024/04/26 09:29:58;;;;;;;2.90;1.10;;;20.20;29.90;;;;;;5528073;26;20495;-74
2024/04/26 09:32:26;;;;;;;2.67;1.10;;;20.30;27.80;;;;;;5528303;26;20506;-75
2024/04/26 09:34:56;;;;;;;2.50;1.20;;;20.30;28.50;;;;;;5528035;26;20446;-76
2024/04/26 09:37:26;;;;;;;2.53;1.20;;;20.30;27.70;;;;;;5528208;26;20442;-74
2024/04/26 09:39:57;;;;;;;2.60;1.00;;;20.40;27.90;;;;;;5527917;26;20490;-75
2024/04/26 09:42:27;;;;;;;2.20;0.90;;;20.40;25.50;;;;;;5527950;26;20525;-74
2024/04/26 09:44:56;;;;;;;2.50;1.10;;;20.50;26.60;;;;;;5527896;26;20450;-75
2024/04/26 09:47:25;;;;;;;2.57;1.03;;;20.60;27.00;;;;;;5527742;26;20446;-75
2024/04/26 09:49:55;;;;;;;2.30;1.30;;;20.70;26.40;;;;;;5526453;26;20559;-75
2024/04/26 09:52:24;;;;;;;3.00;1.00;;;20.90;26.40;;;;;;5527634;26;20825;-77
2024/04/26 09:54:58;;;;;;;2.57;0.97;;;20.90;27.40;;;;;;5528575;26;20457;-75
2024/04/26 09:57:26;;;;;;;2.00;0.80;;;21.10;26.00;;;;;;5527975;26;20494;-75
2024/04/26 09:59:56;;;;;;;6.03;1.27;;;21.20;26.30;;;;;;5527636;26;20773;-74
2024/04/26 10:02:30;;;;;;;2.30;0.80;;;21.40;24.50;;;;;;5527768;26;20550;-74
2024/04/26 10:04:59;;;;;;;2.70;0.90;;;21.40;23.60;;;;;;5527784;26;20458;-76
2024/04/26 10:07:28;;;;;;;2.20;0.80;;;21.40;23.40;;;;;;5527420;26;20454;-76
2024/04/26 10:10:02;;;;;;;2.20;0.80;;;21.50;22.70;;;;;;5527613;26;20947;-75
2024/04/26 10:12:31;;;;;;;2.70;0.80;;;21.50;22.50;;;;;;5527224;26;20450;-75
2024/04/26 10:15:10;;;;;;;3.07;0.80;;;21.60;24.90;;;;;;5527612;26;20454;-74
2024/04/26 10:17:50;;;;;;;2.40;1.00;;;21.70;24.30;;;;;;5527372;26;20502;-74
2024/04/26 10:20:21;;;;;;;1.97;0.77;;;21.70;24.30;;;;;;5527270;26;20446;-75
2024/04/26 10:23:00;;;;;;;3.53;1.00;;;21.70;25.50;;;;;;5527301;26;20454;-75
2024/04/26 10:25:31;;;;;;;2.50;0.70;;;21.70;25.90;;;;;;5527236;26;20446;-74
2024/04/26 10:28:09;;;;;;;2.87;1.10;;;21.80;26.00;;;;;;5528068;26;20454;-74
2024/04/26 10:30:39;;;;;;;3.20;1.30;;;21.90;25.00;;;;;;5527056;26;20502;-74
2024/04/26 10:33:08;;;;;;;2.40;0.90;;;22.00;27.00;;;;;;5527060;26;20537;-76
2024/04/26 10:35:37;;;;;;;2.00;0.80;;;22.10;26.40;;;;;;5527036;26;20494;-75
2024/04/26 10:38:06;;;;;;;3.80;0.83;;;22.30;25.40;;;;;;5526970;26;20490;-75
2024/04/26 10:40:46;;;;;;;2.37;0.80;;;22.40;22.40;;;;;;5526988;26;20438;-73
2024/04/26 10:43:23;;;;;;;2.40;0.97;;;22.40;22.90;;;;;;5526880;26;20446;-75
2024/04/26 10:45:53;;;;;;;2.13;0.80;;;22.50;22.40;;;;;;5526870;26;20465;-74
2024/04/26 10:48:22;;;;;;;2.20;0.80;;;22.50;21.20;;;;;;5527165;26;20449;-75
2024/04/26 10:50:50;;;;;;;3.07;0.80;;;22.50;20.50;;;;;;5527130;26;20442;-76
2024/04/26 10:53:20;;;;;;;2.30;0.90;;;22.50;21.80;;;;;;5526523;26;20450;-75
2024/04/26 10:55:51;;;;;;;2.67;0.90;;;22.50;22.00;;;;;;5527051;26;20450;-75
2024/04/26 10:58:20;;;;;;;3.80;1.03;;;22.50;21.50;;;;;;5527250;26;20506;-75
2024/04/26 11:00:50;;;;;;;2.30;0.80;;;22.40;22.00;;;;;;5526484;26;20446;-75
2024/04/26 11:03:18;;;;;;;2.40;0.90;;;22.40;24.10;;;;;;5526556;26;20447;-75
2024/04/26 11:05:48;;;;;;;2.17;0.73;;;22.40;22.70;;;;;;5526412;26;20465;-74
2024/04/26 11:08:27;;;;;;;2.20;0.70;;;22.40;21.40;;;;;;5526258;26;20570;-75
2024/04/26 11:11:09;;;;;;;3.40;0.90;;;22.30;20.30;;;;;;5526362;26;20458;-75
2024/04/26 11:13:37;;;;;;;2.47;0.93;;;22.40;21.30;;;;;;5526450;26;20449;-74
2024/04/26 11:16:07;;;;;;;3.80;0.80;;;22.50;21.10;;;;;;5526625;26;20450;-75
2024/04/26 11:18:36;;;;;;;2.43;0.97;;;22.60;23.20;;;;;;5526154;26;20957;-75
2024/04/26 11:21:05;;;;;;;3.17;0.90;;;22.70;23.50;;;;;;5526227;26;20555;-75
2024/04/26 11:23:33;;;;;;;2.60;0.80;;;22.90;21.20;;;;;;5526125;26;20518;-75
2024/04/26 11:26:05;;;;;;;2.40;0.97;;;22.90;22.30;;;;;;5525979;26;20442;-76
2024/04/26 11:28:33;;;;;;;3.30;0.90;;;22.90;20.30;;;;;;5526149;26;20509;-75
2024/04/26 11:31:02;;;;;;;2.50;1.00;;;23.00;22.40;;;;;;5526962;26;20457;-76
2024/04/26 11:33:31;;;;;;;2.30;0.90;;;22.90;21.90;;;;;;5525900;26;20943;-75
2024/04/26 11:35:59;;;;;;;2.63;0.90;;;22.80;19.80;;;;;;5526028;26;20442;-75
2024/04/26 11:38:28;;;;;;;2.57;1.17;;;22.70;20.90;;;;;;5525878;26;20892;-75
2024/04/26 11:40:56;;;;;;;3.00;0.87;;;22.70;20.50;;;;;;5526099;26;20494;-74
2024/04/26 11:43:28;;;;;;;3.40;1.03;;;22.80;21.80;;;;;;5526053;26;20450;-74
2024/04/26 11:45:57;;;;;;;3.13;1.20;;;22.80;21.50;;;;;;5526056;26;20457;-76
2024/04/26 11:48:26;;;;;;;2.30;0.60;;;22.80;19.30;;;;;;5525681;26;20490;-75
2024/04/26 11:50:54;;;;;;;2.20;0.70;;;22.80;20.00;;;;;;5525554;26;20581;-76
2024/04/26 11:53:20;;;;;;;2.33;0.80;;;22.70;19.30;;;;;;5526540;26;20948;-75
2024/04/26 11:55:49;;;;;;;2.10;0.80;;;22.70;20.60;;;;;;5525595;26;20494;-75
2024/04/26 11:58:18;;;;;;;2.00;0.63;;;22.70;20.50;;;;;;5525471;26;20494;-75
2024/04/26 12:00:49;;;;;;;2.80;0.90;;;22.60;19.60;;;;;;5525470;26;20497;-75
2024/04/26 12:03:18;;;;;;;2.77;1.13;;;22.50;20.30;;;;;;5525514;26;20492;-75
2024/04/26 12:05:46;;;;;;;2.00;0.80;;;22.40;19.40;;;;;;5525317;26;20773;-75
2024/04/26 12:08:15;;;;;;;2.43;0.80;;;22.20;18.30;;;;;;5525680;26;20469;-75
2024/04/26 12:10:44;;;;;;;2.20;0.80;;;21.90;18.50;;;;;;5525115;26;20494;-75
2024/04/26 12:13:12;;;;;;;2.40;0.80;;;21.70;20.40;;;;;;5525792;26;20502;-75
2024/04/26 12:15:41;;;;;;;2.63;0.90;;;21.60;20.30;;;;;;5529685;26;20510;-75
2024/04/26 12:18:13;;;;;;;2.60;0.97;;;21.50;19.70;;;;;;5529426;26;20498;-75
2024/04/26 12:20:42;;;;;;;2.47;0.90;;;21.40;19.30;;;;;;5529008;26;20813;-74
2024/04/26 12:23:10;;;;;;;2.40;0.90;;;21.40;20.20;;;;;;5528587;26;20441;-75
2024/04/26 12:25:39;;;;;;;2.20;0.90;;;21.40;22.10;;;;;;5528884;26;20494;-75
2024/04/26 12:28:09;;;;;;;2.47;0.97;;;21.50;22.50;;;;;;5528781;26;20780;-74
2024/04/26 12:30:39;;;;;;;2.27;0.90;;;21.70;20.50;;;;;;5528887;26;20543;-75
2024/04/26 12:33:08;;;;;;;4.67;1.00;;;21.80;20.20;;;;;;5529637;26;20446;-74
2024/04/26 12:35:39;;;;;;;2.30;0.80;;;21.80;20.50;;;;;;5528731;26;21000;-75
2024/04/26 12:38:08;;;;;;;1.90;0.70;;;21.90;21.00;;;;;;5528834;26;20446;-76
2024/04/26 12:40:36;;;;;;;2.67;1.00;;;21.90;20.70;;;;;;5528737;26;20441;-75
2024/04/26 12:43:05;;;;;;;2.77;0.80;;;21.80;21.90;;;;;;5528767;26;20446;-75
2024/04/26 12:45:34;;;;;;;2.10;0.77;;;21.70;22.40;;;;;;5528655;26;20506;-74
2024/04/26 12:48:03;;;;;;;3.13;1.00;;;21.70;21.70;;;;;;5528615;26;20446;-75
2024/04/26 12:50:31;;;;;;;2.30;0.90;;;21.60;21.60;;;;;;5529197;26;20446;-75
2024/04/26 12:53:03;;;;;;;2.00;0.70;;;21.60;22.20;;;;;;5528414;26;20956;-74
2024/04/26 12:55:31;;;;;;;2.13;0.83;;;21.50;22.30;;;;;;5528954;26;20453;-75
2024/04/26 12:58:00;;;;;;;2.30;0.80;;;21.40;22.10;;;;;;5528548;26;20506;-75
2024/04/26 13:00:29;;;;;;;4.30;1.00;;;21.30;22.40;;;;;;5528349;26;20453;-75
2024/04/26 13:02:58;;;;;;;2.37;0.80;;;21.20;23.00;;;;;;5528436;26;20559;-75
2024/04/26 13:05:26;;;;;;;5.30;1.30;;;21.10;22.00;;;;;;5528351;26;20999;-76